sensor_id;sensor_type;location;lat;lon;timestamp;pressure;altitude;pressure_sealevel;temperature;humidity
54936;BME280;40838;50.676;7.838;2024-03-25T00:00:54;97404.97;;;5.03;100.00
54936;BME280;40838;50.676;7.838;2024-03-25T00:03:21;97407.41;;;4.93;100.00
54936;BME280;40838;50.676;7.838;2024-03-25T00:05:47;97404.78;;;4.93;100.00
54936;BME280;40838;50.676;7.838;2024-03-25T00:08:13;97408.97;;;4.48;100.00
54936;BME280;40838;50.676;7.838;2024-03-25T00:10:41;97403.91;;;4.87;100.00
54936;BME280;40838;50.676;7.838;2024-03-25T00:13:07;97408.94;;;4.20;100.00
54936;BME280;40838;50.676;7.838;2024-03-25T00:15:36;97412.03;;;4.17;100.00
54936;BME280;40838;50.676;7.838;2024-03-25T00:18:03;97416.59;;;4.21;100.00
54936;BME280;40838;50.676;7.838;2024-03-25T00:20:29;97414.69;;;4.05;100.00
54936;BME280;40838;50.676;7.838;2024-03-25T00:22:56;97414.34;;;4.01;100.00
54936;BME280;40838;50.676;7.838;2024-03-25T00:25:21;97421.63;;;3.99;100.00
54936;BME280;40838;50.676;7.838;2024-03-25T00:27:50;97408.19;;;3.96;100.00
54936;BME280;40838;50.676;7.838;2024-03-25T00:30:15;97411.09;;;4.63;100.00
54936;BME280;40838;50.676;7.838;2024-03-25T00:32:42;97410.34;;;4.51;100.00
54936;BME280;40838;50.676;7.838;2024-03-25T00:35:08;97404.63;;;4.54;100.00
54936;BME280;40838;50.676;7.838;2024-03-25T00:37:35;97404.00;;;4.64;100.00
54936;BME280;40838;50.676;7.838;2024-03-25T00:40:01;97407.91;;;5.07;100.00
54936;BME280;40838;50.676;7.838;2024-03-25T00:42:29;97401.94;;;5.28;100.00
54936;BME280;40838;50.676;7.838;2024-03-25T00:44:57;97401.63;;;5.24;100.00
54936;BME280;40838;50.676;7.838;2024-03-25T00:47:23;97410.38;;;5.13;100.00
54936;BME280;40838;50.676;7.838;2024-03-25T00:49:49;97405.44;;;5.50;100.00
54936;BME280;40838;50.676;7.838;2024-03-25T00:52:16;97415.41;;;5.15;100.00
54936;BME280;40838;50.676;7.838;2024-03-25T00:54:42;97404.22;;;4.74;100.00
54936;BME280;40838;50.676;7.838;2024-03-25T00:57:08;97416.25;;;4.18;100.00
54936;BME280;40838;50.676;7.838;2024-03-25T00:59:34;97416.47;;;4.85;100.00
54936;BME280;40838;50.676;7.838;2024-03-25T01:02:02;97410.78;;;4.19;100.00
54936;BME280;40838;50.676;7.838;2024-03-25T01:04:28;97415.34;;;4.12;100.00
54936;BME280;40838;50.676;7.838;2024-03-25T01:06:55;97410.44;;;4.16;100.00
54936;BME280;40838;50.676;7.838;2024-03-25T01:09:21;97412.88;;;3.94;100.00
54936;BME280;40838;50.676;7.838;2024-03-25T01:11:48;97411.84;;;4.06;100.00
54936;BME280;40838;50.676;7.838;2024-03-25T01:14:14;97416.72;;;4.15;100.00
54936;BME280;40838;50.676;7.838;2024-03-25T01:16:40;97410.19;;;4.29;100.00
54936;BME280;40838;50.676;7.838;2024-03-25T01:19:09;97411.03;;;4.46;100.00
54936;BME280;40838;50.676;7.838;2024-03-25T01:21:36;97409.19;;;4.58;100.00
54936;BME280;40838;50.676;7.838;2024-03-25T01:24:02;97411.03;;;4.75;100.00
54936;BME280;40838;50.676;7.838;2024-03-25T01:26:29;97405.56;;;4.76;100.00
54936;BME280;40838;50.676;7.838;2024-03-25T01:28:54;97406.31;;;4.20;100.00
54936;BME280;40838;50.676;7.838;2024-03-25T01:31:21;97412.72;;;4.24;100.00
54936;BME280;40838;50.676;7.838;2024-03-25T01:33:47;97406.66;;;4.35;100.00
54936;BME280;40838;50.676;7.838;2024-03-25T01:36:15;97410.75;;;4.31;100.00
54936;BME280;40838;50.676;7.838;2024-03-25T01:38:43;97409.78;;;4.08;100.00
54936;BME280;40838;50.676;7.838;2024-03-25T01:41:10;97405.56;;;4.07;100.00
54936;BME280;40838;50.676;7.838;2024-03-25T01:43:36;97402.75;;;3.85;100.00
54936;BME280;40838;50.676;7.838;2024-03-25T01:46:04;97402.59;;;3.92;100.00
54936;BME280;40838;50.676;7.838;2024-03-25T01:48:31;97408.88;;;3.91;100.00
54936;BME280;40838;50.676;7.838;2024-03-25T01:50:57;97399.53;;;4.07;100.00
54936;BME280;40838;50.676;7.838;2024-03-25T01:53:28;97397.09;;;4.17;100.00
54936;BME280;40838;50.676;7.838;2024-03-25T01:55:55;97394.00;;;4.32;100.00
54936;BME280;40838;50.676;7.838;2024-03-25T01:58:23;97404.19;;;4.05;100.00
54936;BME280;40838;50.676;7.838;2024-03-25T02:00:49;97411.38;;;3.86;100.00
54936;BME280;40838;50.676;7.838;2024-03-25T02:03:17;97413.28;;;4.54;100.00
54936;BME280;40838;50.676;7.838;2024-03-25T02:05:42;97413.56;;;4.70;100.00
54936;BME280;40838;50.676;7.838;2024-03-25T02:08:09;97414.97;;;4.32;100.00
54936;BME280;40838;50.676;7.838;2024-03-25T02:10:37;97420.81;;;3.87;100.00
54936;BME280;40838;50.676;7.838;2024-03-25T02:13:04;97423.91;;;3.84;100.00
54936;BME280;40838;50.676;7.838;2024-03-25T02:15:30;97422.97;;;3.90;100.00
54936;BME280;40838;50.676;7.838;2024-03-25T02:17:57;97420.50;;;3.60;100.00
54936;BME280;40838;50.676;7.838;2024-03-25T02:20:23;97416.38;;;3.87;100.00
54936;BME280;40838;50.676;7.838;2024-03-25T02:22:51;97415.59;;;3.63;100.00
54936;BME280;40838;50.676;7.838;2024-03-25T02:25:17;97414.13;;;3.91;100.00
54936;BME280;40838;50.676;7.838;2024-03-25T02:27:46;97419.53;;;4.25;100.00
54936;BME280;40838;50.676;7.838;2024-03-25T02:30:12;97416.28;;;3.82;100.00
54936;BME280;40838;50.676;7.838;2024-03-25T02:32:40;97410.91;;;3.89;100.00
54936;BME280;40838;50.676;7.838;2024-03-25T02:35:08;97421.59;;;4.11;100.00
54936;BME280;40838;50.676;7.838;2024-03-25T02:37:37;97412.28;;;3.91;100.00
54936;BME280;40838;50.676;7.838;2024-03-25T02:40:04;97408.66;;;4.04;100.00
54936;BME280;40838;50.676;7.838;2024-03-25T02:42:33;97414.56;;;3.53;100.00
54936;BME280;40838;50.676;7.838;2024-03-25T02:45:01;97413.31;;;3.79;100.00
54936;BME280;40838;50.676;7.838;2024-03-25T02:47:28;97421.88;;;3.62;100.00
54936;BME280;40838;50.676;7.838;2024-03-25T02:49:53;97425.25;;;3.86;100.00
54936;BME280;40838;50.676;7.838;2024-03-25T02:52:20;97421.41;;;3.77;100.00
54936;BME280;40838;50.676;7.838;2024-03-25T02:54:46;97421.41;;;3.77;100.00
54936;BME280;40838;50.676;7.838;2024-03-25T02:57:13;97416.03;;;3.84;100.00
54936;BME280;40838;50.676;7.838;2024-03-25T02:59:39;97423.13;;;3.95;100.00
54936;BME280;40838;50.676;7.838;2024-03-25T03:02:08;97427.44;;;3.66;100.00
54936;BME280;40838;50.676;7.838;2024-03-25T03:04:34;97417.53;;;3.80;100.00
54936;BME280;40838;50.676;7.838;2024-03-25T03:07:01;97423.22;;;3.77;100.00
54936;BME280;40838;50.676;7.838;2024-03-25T03:09:27;97415.59;;;3.99;100.00
54936;BME280;40838;50.676;7.838;2024-03-25T03:11:54;97424.25;;;3.99;100.00
54936;BME280;40838;50.676;7.838;2024-03-25T03:14:20;97425.06;;;3.76;100.00
54936;BME280;40838;50.676;7.838;2024-03-25T03:16:47;97432.81;;;3.95;100.00
54936;BME280;40838;50.676;7.838;2024-03-25T03:19:16;97428.09;;;3.73;100.00
54936;BME280;40838;50.676;7.838;2024-03-25T03:21:43;97424.16;;;3.94;100.00
54936;BME280;40838;50.676;7.838;2024-03-25T03:24:09;97426.31;;;3.85;100.00
54936;BME280;40838;50.676;7.838;2024-03-25T03:26:36;97433.25;;;3.80;100.00
54936;BME280;40838;50.676;7.838;2024-03-25T03:29:02;97438.94;;;4.00;100.00
54936;BME280;40838;50.676;7.838;2024-03-25T03:31:30;97427.09;;;3.86;100.00
54936;BME280;40838;50.676;7.838;2024-03-25T03:33:56;97428.47;;;4.00;100.00
54936;BME280;40838;50.676;7.838;2024-03-25T03:36:24;97423.56;;;4.04;100.00
54936;BME280;40838;50.676;7.838;2024-03-25T03:38:50;97417.88;;;3.83;100.00
54936;BME280;40838;50.676;7.838;2024-03-25T03:41:18;97424.94;;;3.95;100.00
54936;BME280;40838;50.676;7.838;2024-03-25T03:43:44;97422.50;;;4.17;100.00
54936;BME280;40838;50.676;7.838;2024-03-25T03:46:11;97425.41;;;4.03;100.00
54936;BME280;40838;50.676;7.838;2024-03-25T03:48:37;97425.84;;;4.00;100.00
54936;BME280;40838;50.676;7.838;2024-03-25T03:51:05;97427.41;;;4.13;100.00
54936;BME280;40838;50.676;7.838;2024-03-25T03:53:33;97418.94;;;3.94;100.00
54936;BME280;40838;50.676;7.838;2024-03-25T03:56:02;97424.16;;;4.34;100.00
54936;BME280;40838;50.676;7.838;2024-03-25T03:58:30;97425.13;;;4.17;100.00
54936;BME280;40838;50.676;7.838;2024-03-25T04:00:57;97425.16;;;4.45;100.00
54936;BME280;40838;50.676;7.838;2024-03-25T04:03:23;97431.69;;;4.31;100.00
54936;BME280;40838;50.676;7.838;2024-03-25T04:05:50;97430.69;;;4.32;100.00
54936;BME280;40838;50.676;7.838;2024-03-25T04:08:16;97423.88;;;4.59;100.00
54936;BME280;40838;50.676;7.838;2024-03-25T04:10:45;97429.72;;;4.50;100.00
54936;BME280;40838;50.676;7.838;2024-03-25T04:13:12;97432.63;;;5.11;100.00
54936;BME280;40838;50.676;7.838;2024-03-25T04:15:40;97435.19;;;5.06;100.00
54936;BME280;40838;50.676;7.838;2024-03-25T04:18:06;97433.44;;;5.45;100.00
54936;BME280;40838;50.676;7.838;2024-03-25T04:20:36;97441.66;;;5.32;100.00
54936;BME280;40838;50.676;7.838;2024-03-25T04:23:03;97434.44;;;5.10;100.00
54936;BME280;40838;50.676;7.838;2024-03-25T04:25:32;97441.22;;;4.77;100.00
54936;BME280;40838;50.676;7.838;2024-03-25T04:28:00;97442.75;;;4.90;100.00
54936;BME280;40838;50.676;7.838;2024-03-25T04:30:28;97436.13;;;4.71;100.00
54936;BME280;40838;50.676;7.838;2024-03-25T04:32:54;97434.72;;;4.80;100.00
54936;BME280;40838;50.676;7.838;2024-03-25T04:35:21;97435.81;;;4.27;100.00
54936;BME280;40838;50.676;7.838;2024-03-25T04:37:47;97439.16;;;3.99;100.00
54936;BME280;40838;50.676;7.838;2024-03-25T04:40:13;97448.03;;;3.86;100.00
54936;BME280;40838;50.676;7.838;2024-03-25T04:42:40;97443.13;;;3.89;100.00
54936;BME280;40838;50.676;7.838;2024-03-25T04:45:08;97441.97;;;4.32;100.00
54936;BME280;40838;50.676;7.838;2024-03-25T04:47:34;97439.16;;;4.51;100.00
54936;BME280;40838;50.676;7.838;2024-03-25T04:50:00;97441.38;;;4.71;100.00
54936;BME280;40838;50.676;7.838;2024-03-25T04:52:26;97432.56;;;4.77;100.00
54936;BME280;40838;50.676;7.838;2024-03-25T04:54:52;97435.19;;;4.77;100.00
54936;BME280;40838;50.676;7.838;2024-03-25T04:57:18;97435.94;;;4.61;100.00
54936;BME280;40838;50.676;7.838;2024-03-25T04:59:44;97432.25;;;4.73;100.00
54936;BME280;40838;50.676;7.838;2024-03-25T05:02:12;97437.53;;;4.62;100.00
54936;BME280;40838;50.676;7.838;2024-03-25T05:04:38;97449.53;;;4.86;100.00
54936;BME280;40838;50.676;7.838;2024-03-25T05:07:04;97453.88;;;4.40;100.00
54936;BME280;40838;50.676;7.838;2024-03-25T05:09:30;97462.38;;;4.07;100.00
54936;BME280;40838;50.676;7.838;2024-03-25T05:11:56;97463.06;;;4.14;100.00
54936;BME280;40838;50.676;7.838;2024-03-25T05:14:22;97462.38;;;3.72;100.00
54936;BME280;40838;50.676;7.838;2024-03-25T05:16:48;97461.91;;;3.75;100.00
54936;BME280;40838;50.676;7.838;2024-03-25T05:19:16;97467.84;;;4.57;100.00
54936;BME280;40838;50.676;7.838;2024-03-25T05:21:42;97458.88;;;4.53;100.00
54936;BME280;40838;50.676;7.838;2024-03-25T05:24:08;97465.56;;;4.21;100.00
54936;BME280;40838;50.676;7.838;2024-03-25T05:26:34;97457.72;;;4.61;100.00
54936;BME280;40838;50.676;7.838;2024-03-25T05:29:00;97465.31;;;4.74;100.00
54936;BME280;40838;50.676;7.838;2024-03-25T05:31:25;97456.22;;;4.65;100.00
54936;BME280;40838;50.676;7.838;2024-03-25T05:33:51;97456.59;;;4.86;100.00
54936;BME280;40838;50.676;7.838;2024-03-25T05:36:19;97460.16;;;5.25;100.00
54936;BME280;40838;50.676;7.838;2024-03-25T05:38:45;97466.84;;;5.49;100.00
54936;BME280;40838;50.676;7.838;2024-03-25T05:41:11;97467.66;;;5.50;100.00
54936;BME280;40838;50.676;7.838;2024-03-25T05:43:37;97473.69;;;5.50;100.00
54936;BME280;40838;50.676;7.838;2024-03-25T05:46:03;97477.66;;;5.36;100.00
54936;BME280;40838;50.676;7.838;2024-03-25T05:48:30;97472.88;;;5.33;100.00
54936;BME280;40838;50.676;7.838;2024-03-25T05:51:00;97470.91;;;5.40;100.00
54936;BME280;40838;50.676;7.838;2024-03-25T05:53:28;97474.00;;;5.37;100.00
54936;BME280;40838;50.676;7.838;2024-03-25T05:55:54;97467.06;;;5.31;100.00
54936;BME280;40838;50.676;7.838;2024-03-25T05:58:20;97474.75;;;5.04;100.00
54936;BME280;40838;50.676;7.838;2024-03-25T06:00:47;97473.38;;;5.01;100.00
54936;BME280;40838;50.676;7.838;2024-03-25T06:03:13;97467.47;;;5.23;100.00
54936;BME280;40838;50.676;7.838;2024-03-25T06:05:39;97474.69;;;5.16;100.00
54936;BME280;40838;50.676;7.838;2024-03-25T06:08:06;97474.66;;;5.44;100.00
54936;BME280;40838;50.676;7.838;2024-03-25T06:10:36;97477.75;;;5.41;100.00
54936;BME280;40838;50.676;7.838;2024-03-25T06:13:02;97472.72;;;5.23;100.00
54936;BME280;40838;50.676;7.838;2024-03-25T06:15:28;97482.78;;;4.57;100.00
54936;BME280;40838;50.676;7.838;2024-03-25T06:17:54;97472.78;;;4.54;100.00
54936;BME280;40838;50.676;7.838;2024-03-25T06:20:20;97464.38;;;4.40;100.00
54936;BME280;40838;50.676;7.838;2024-03-25T06:22:46;97471.25;;;4.18;100.00
54936;BME280;40838;50.676;7.838;2024-03-25T06:25:12;97472.38;;;4.33;100.00
54936;BME280;40838;50.676;7.838;2024-03-25T06:27:39;97472.84;;;4.19;100.00
54936;BME280;40838;50.676;7.838;2024-03-25T06:30:07;97468.31;;;4.54;100.00
54936;BME280;40838;50.676;7.838;2024-03-25T06:32:51;97473.16;;;4.74;100.00
54936;BME280;40838;50.676;7.838;2024-03-25T06:35:35;97476.06;;;4.61;100.00
54936;BME280;40838;50.676;7.838;2024-03-25T06:38:01;97471.34;;;5.03;100.00
54936;BME280;40838;50.676;7.838;2024-03-25T06:40:27;97464.03;;;4.77;100.00
54936;BME280;40838;50.676;7.838;2024-03-25T06:42:54;97478.22;;;4.93;100.00
54936;BME280;40838;50.676;7.838;2024-03-25T06:45:20;97476.00;;;5.01;100.00
54936;BME280;40838;50.676;7.838;2024-03-25T06:47:46;97479.81;;;4.94;100.00
54936;BME280;40838;50.676;7.838;2024-03-25T06:50:13;97490.25;;;5.06;100.00
54936;BME280;40838;50.676;7.838;2024-03-25T06:52:39;97489.06;;;5.13;100.00
54936;BME280;40838;50.676;7.838;2024-03-25T06:55:06;97490.97;;;5.01;100.00
54936;BME280;40838;50.676;7.838;2024-03-25T06:57:32;97489.25;;;5.23;100.00
54936;BME280;40838;50.676;7.838;2024-03-25T07:00:00;97493.06;;;5.16;100.00
54936;BME280;40838;50.676;7.838;2024-03-25T07:02:26;97500.75;;;5.22;100.00
54936;BME280;40838;50.676;7.838;2024-03-25T07:04:52;97495.25;;;5.07;100.00
54936;BME280;40838;50.676;7.838;2024-03-25T07:07:18;97493.22;;;5.09;100.00
54936;BME280;40838;50.676;7.838;2024-03-25T07:09:43;97487.13;;;4.92;100.00
54936;BME280;40838;50.676;7.838;2024-03-25T07:12:09;97492.78;;;5.00;100.00
54936;BME280;40838;50.676;7.838;2024-03-25T07:14:35;97500.06;;;5.27;100.00
54936;BME280;40838;50.676;7.838;2024-03-25T07:17:03;97493.25;;;5.43;100.00
54936;BME280;40838;50.676;7.838;2024-03-25T07:19:29;97487.69;;;5.73;100.00
54936;BME280;40838;50.676;7.838;2024-03-25T07:21:54;97488.81;;;6.16;100.00
54936;BME280;40838;50.676;7.838;2024-03-25T07:24:20;97489.28;;;5.91;100.00
54936;BME280;40838;50.676;7.838;2024-03-25T07:26:48;97489.50;;;6.67;100.00
54936;BME280;40838;50.676;7.838;2024-03-25T07:29:14;97481.84;;;7.79;100.00
54936;BME280;40838;50.676;7.838;2024-03-25T07:31:40;97480.63;;;10.75;100.00
54936;BME280;40838;50.676;7.838;2024-03-25T07:34:07;97493.88;;;8.55;100.00
54936;BME280;40838;50.676;7.838;2024-03-25T07:36:33;97495.56;;;6.95;100.00
54936;BME280;40838;50.676;7.838;2024-03-25T07:38:59;97492.19;;;6.33;100.00
54936;BME280;40838;50.676;7.838;2024-03-25T07:41:25;97488.78;;;6.33;100.00
54936;BME280;40838;50.676;7.838;2024-03-25T07:43:51;97494.63;;;6.18;100.00
54936;BME280;40838;50.676;7.838;2024-03-25T07:46:17;97485.75;;;7.12;100.00
54936;BME280;40838;50.676;7.838;2024-03-25T07:48:42;97497.81;;;6.59;100.00
54936;BME280;40838;50.676;7.838;2024-03-25T07:51:11;97493.00;;;7.59;100.00
54936;BME280;40838;50.676;7.838;2024-03-25T07:53:37;97493.03;;;6.34;100.00
54936;BME280;40838;50.676;7.838;2024-03-25T07:56:04;97494.88;;;5.61;100.00
54936;BME280;40838;50.676;7.838;2024-03-25T07:58:30;97490.97;;;5.46;100.00
54936;BME280;40838;50.676;7.838;2024-03-25T08:00:56;97488.34;;;6.58;100.00
54936;BME280;40838;50.676;7.838;2024-03-25T08:03:22;97492.50;;;7.03;100.00
54936;BME280;40838;50.676;7.838;2024-03-25T08:05:48;97483.25;;;9.64;100.00
54936;BME280;40838;50.676;7.838;2024-03-25T08:08:15;97488.84;;;9.62;100.00
54936;BME280;40838;50.676;7.838;2024-03-25T08:10:41;97486.41;;;11.36;100.00
54936;BME280;40838;50.676;7.838;2024-03-25T08:13:08;97487.63;;;11.83;100.00
54936;BME280;40838;50.676;7.838;2024-03-25T08:15:33;97498.09;;;11.99;100.00
54936;BME280;40838;50.676;7.838;2024-03-25T08:17:59;97489.56;;;10.14;100.00
54936;BME280;40838;50.676;7.838;2024-03-25T08:20:25;97498.38;;;8.07;100.00
54936;BME280;40838;50.676;7.838;2024-03-25T08:22:51;97500.97;;;9.63;100.00
54936;BME280;40838;50.676;7.838;2024-03-25T08:25:18;97498.47;;;7.20;100.00
54936;BME280;40838;50.676;7.838;2024-03-25T08:27:44;97502.72;;;6.33;100.00
54936;BME280;40838;50.676;7.838;2024-03-25T08:30:10;97495.34;;;8.93;100.00
54936;BME280;40838;50.676;7.838;2024-03-25T08:32:36;97492.53;;;9.76;100.00
54936;BME280;40838;50.676;7.838;2024-03-25T08:35:03;97490.13;;;9.80;100.00
54936;BME280;40838;50.676;7.838;2024-03-25T08:37:28;97482.91;;;11.46;100.00
54936;BME280;40838;50.676;7.838;2024-03-25T08:39:54;97486.72;;;9.74;100.00
54936;BME280;40838;50.676;7.838;2024-03-25T08:42:21;97493.31;;;9.87;100.00
54936;BME280;40838;50.676;7.838;2024-03-25T08:44:47;97485.38;;;9.21;100.00
54936;BME280;40838;50.676;7.838;2024-03-25T08:47:13;97479.31;;;9.71;100.00
54936;BME280;40838;50.676;7.838;2024-03-25T08:49:39;97478.34;;;8.63;100.00
54936;BME280;40838;50.676;7.838;2024-03-25T08:52:05;97478.06;;;8.07;100.00
54936;BME280;40838;50.676;7.838;2024-03-25T08:54:31;97487.22;;;9.15;100.00
54936;BME280;40838;50.676;7.838;2024-03-25T08:56:57;97489.19;;;10.56;100.00
54936;BME280;40838;50.676;7.838;2024-03-25T08:59:24;97494.31;;;10.22;100.00
54936;BME280;40838;50.676;7.838;2024-03-25T09:01:50;97490.03;;;11.01;100.00
54936;BME280;40838;50.676;7.838;2024-03-25T09:04:16;97490.97;;;10.81;99.05
54936;BME280;40838;50.676;7.838;2024-03-25T09:06:42;97493.75;;;11.45;100.00
54936;BME280;40838;50.676;7.838;2024-03-25T09:09:07;97486.66;;;10.25;100.00
54936;BME280;40838;50.676;7.838;2024-03-25T09:11:57;97488.56;;;10.85;100.00
54936;BME280;40838;50.676;7.838;2024-03-25T09:14:24;97490.81;;;12.63;98.26
54936;BME280;40838;50.676;7.838;2024-03-25T09:16:50;97490.41;;;11.97;98.79
54936;BME280;40838;50.676;7.838;2024-03-25T09:19:17;97492.38;;;10.58;100.00
54936;BME280;40838;50.676;7.838;2024-03-25T09:21:45;97487.50;;;10.06;100.00
54936;BME280;40838;50.676;7.838;2024-03-25T09:24:11;97486.13;;;10.18;100.00
54936;BME280;40838;50.676;7.838;2024-03-25T09:26:37;97475.53;;;12.01;100.00
54936;BME280;40838;50.676;7.838;2024-03-25T09:29:02;97478.16;;;11.43;99.82
54936;BME280;40838;50.676;7.838;2024-03-25T09:31:30;97474.19;;;11.41;100.00
54936;BME280;40838;50.676;7.838;2024-03-25T09:33:56;97471.72;;;11.10;99.46
54936;BME280;40838;50.676;7.838;2024-03-25T09:36:22;97480.84;;;9.11;100.00
54936;BME280;40838;50.676;7.838;2024-03-25T09:38:48;97477.75;;;9.70;100.00
54936;BME280;40838;50.676;7.838;2024-03-25T09:41:13;97462.63;;;13.05;91.45
54936;BME280;40838;50.676;7.838;2024-03-25T09:43:43;97465.66;;;13.17;89.98
54936;BME280;40838;50.676;7.838;2024-03-25T09:46:09;97466.09;;;11.61;95.76
54936;BME280;40838;50.676;7.838;2024-03-25T09:48:37;97456.22;;;11.32;92.45
54936;BME280;40838;50.676;7.838;2024-03-25T09:51:04;97465.59;;;10.65;98.96
54936;BME280;40838;50.676;7.838;2024-03-25T09:53:30;97471.03;;;11.38;94.40
54936;BME280;40838;50.676;7.838;2024-03-25T09:55:57;97456.09;;;11.82;91.26
54936;BME280;40838;50.676;7.838;2024-03-25T09:58:24;97459.22;;;11.15;93.47
54936;BME280;40838;50.676;7.838;2024-03-25T10:00:52;97461.44;;;10.98;92.66
54936;BME280;40838;50.676;7.838;2024-03-25T10:03:17;97457.88;;;11.23;91.36
54936;BME280;40838;50.676;7.838;2024-03-25T10:05:45;97460.56;;;11.13;84.63
54936;BME280;40838;50.676;7.838;2024-03-25T10:08:11;97454.47;;;9.52;91.50
54936;BME280;40838;50.676;7.838;2024-03-25T10:10:37;97446.03;;;11.50;85.78
54936;BME280;40838;50.676;7.838;2024-03-25T10:13:03;97447.41;;;12.00;88.31
54936;BME280;40838;50.676;7.838;2024-03-25T10:15:29;97438.63;;;11.47;89.42
54936;BME280;40838;50.676;7.838;2024-03-25T10:17:55;97441.56;;;12.51;82.69
54936;BME280;40838;50.676;7.838;2024-03-25T10:20:21;97432.78;;;13.46;81.16
54936;BME280;40838;50.676;7.838;2024-03-25T10:22:48;97434.03;;;13.34;76.41
54936;BME280;40838;50.676;7.838;2024-03-25T10:25:23;97435.91;;;10.78;81.75
54936;BME280;40838;50.676;7.838;2024-03-25T10:27:55;97424.47;;;10.28;86.56
54936;BME280;40838;50.676;7.838;2024-03-25T10:30:21;97419.94;;;12.39;77.58
54936;BME280;40838;50.676;7.838;2024-03-25T10:32:57;97412.09;;;13.75;73.18
54936;BME280;40838;50.676;7.838;2024-03-25T10:35:26;97419.84;;;12.01;77.90
54936;BME280;40838;50.676;7.838;2024-03-25T10:37:58;97420.66;;;11.73;76.72
54936;BME280;40838;50.676;7.838;2024-03-25T10:40:27;97419.81;;;9.84;84.63
54936;BME280;40838;50.676;7.838;2024-03-25T10:43:00;97409.34;;;10.93;80.59
54936;BME280;40838;50.676;7.838;2024-03-25T10:45:28;97406.34;;;11.39;80.75
54936;BME280;40838;50.676;7.838;2024-03-25T10:47:59;97406.03;;;12.23;79.26
54936;BME280;40838;50.676;7.838;2024-03-25T10:50:29;97395.38;;;13.42;69.41
54936;BME280;40838;50.676;7.838;2024-03-25T10:52:57;97398.41;;;11.39;74.54
54936;BME280;40838;50.676;7.838;2024-03-25T10:55:25;97389.38;;;13.17;71.09
54936;BME280;40838;50.676;7.838;2024-03-25T10:57:54;97394.25;;;12.11;73.67
54936;BME280;40838;50.676;7.838;2024-03-25T11:00:22;97395.72;;;12.22;73.28
54936;BME280;40838;50.676;7.838;2024-03-25T11:02:48;97389.53;;;11.83;73.04
54936;BME280;40838;50.676;7.838;2024-03-25T11:05:16;97385.28;;;13.25;67.63
54936;BME280;40838;50.676;7.838;2024-03-25T11:07:42;97389.13;;;12.62;73.29
54936;BME280;40838;50.676;7.838;2024-03-25T11:10:12;97378.31;;;13.76;64.95
54936;BME280;40838;50.676;7.838;2024-03-25T11:12:40;97387.56;;;10.57;75.61
54936;BME280;40838;50.676;7.838;2024-03-25T11:15:07;97375.09;;;13.13;65.62
54936;BME280;40838;50.676;7.838;2024-03-25T11:17:34;97371.34;;;12.82;64.48
54936;BME280;40838;50.676;7.838;2024-03-25T11:20:12;97371.63;;;11.07;66.51
54936;BME280;40838;50.676;7.838;2024-03-25T11:22:47;97371.19;;;12.54;65.95
54936;BME280;40838;50.676;7.838;2024-03-25T11:25:16;97371.63;;;11.07;67.35
54936;BME280;40838;50.676;7.838;2024-03-25T11:27:43;97368.50;;;13.11;63.48
54936;BME280;40838;50.676;7.838;2024-03-25T11:30:10;97355.38;;;13.47;58.39
54936;BME280;40838;50.676;7.838;2024-03-25T11:32:46;97345.09;;;12.80;58.10
54936;BME280;40838;50.676;7.838;2024-03-25T11:35:12;97341.63;;;11.99;66.09
54936;BME280;40838;50.676;7.838;2024-03-25T11:37:40;97346.34;;;10.46;71.39
54936;BME280;40838;50.676;7.838;2024-03-25T11:40:07;97339.22;;;10.86;71.29
54936;BME280;40838;50.676;7.838;2024-03-25T11:42:35;97318.25;;;11.53;70.36
54936;BME280;40838;50.676;7.838;2024-03-25T11:45:04;97323.72;;;10.30;76.54
54936;BME280;40838;50.676;7.838;2024-03-25T11:47:30;97320.09;;;12.43;71.61
54936;BME280;40838;50.676;7.838;2024-03-25T11:49:56;97317.34;;;12.29;67.04
54936;BME280;40838;50.676;7.838;2024-03-25T11:52:22;97314.31;;;12.60;73.38
54936;BME280;40838;50.676;7.838;2024-03-25T11:54:54;97312.06;;;11.38;72.84
54936;BME280;40838;50.676;7.838;2024-03-25T11:57:20;97306.84;;;11.57;78.24
54936;BME280;40838;50.676;7.838;2024-03-25T11:59:48;97313.88;;;11.09;74.56
54936;BME280;40838;50.676;7.838;2024-03-25T12:02:15;97307.00;;;10.34;73.20
54936;BME280;40838;50.676;7.838;2024-03-25T12:04:42;97302.47;;;12.10;74.54
54936;BME280;40838;50.676;7.838;2024-03-25T12:07:11;97295.94;;;11.59;68.72
54936;BME280;40838;50.676;7.838;2024-03-25T12:09:37;97292.97;;;12.09;62.06
54936;BME280;40838;50.676;7.838;2024-03-25T12:12:36;97290.97;;;11.76;65.84
54936;BME280;40838;50.676;7.838;2024-03-25T12:15:04;97275.31;;;11.56;62.60
54936;BME280;40838;50.676;7.838;2024-03-25T12:17:30;97286.09;;;10.77;68.69
54936;BME280;40838;50.676;7.838;2024-03-25T12:20:02;97270.66;;;12.47;69.94
54936;BME280;40838;50.676;7.838;2024-03-25T12:22:30;97264.19;;;12.72;65.82
54936;BME280;40838;50.676;7.838;2024-03-25T12:24:57;97271.56;;;11.33;66.32
54936;BME280;40838;50.676;7.838;2024-03-25T12:27:24;97250.38;;;11.04;65.96
54936;BME280;40838;50.676;7.838;2024-03-25T12:29:57;97245.47;;;9.69;69.29
54936;BME280;40838;50.676;7.838;2024-03-25T12:32:35;97249.00;;;10.09;67.82
54936;BME280;40838;50.676;7.838;2024-03-25T12:35:01;97239.16;;;11.41;66.65
54936;BME280;40838;50.676;7.838;2024-03-25T12:37:27;97229.00;;;12.48;68.78
54936;BME280;40838;50.676;7.838;2024-03-25T12:39:53;97227.78;;;12.02;75.36
54936;BME280;40838;50.676;7.838;2024-03-25T12:42:19;97230.09;;;11.18;69.93
54936;BME280;40838;50.676;7.838;2024-03-25T12:44:45;97224.63;;;11.81;76.35
54936;BME280;40838;50.676;7.838;2024-03-25T12:47:11;97215.19;;;12.65;69.36
54936;BME280;40838;50.676;7.838;2024-03-25T12:49:38;97210.66;;;12.98;67.93
54936;BME280;40838;50.676;7.838;2024-03-25T12:52:05;97206.63;;;14.20;65.15
54936;BME280;40838;50.676;7.838;2024-03-25T12:54:32;97199.47;;;14.96;64.33
54936;BME280;40838;50.676;7.838;2024-03-25T12:56:58;97195.84;;;14.92;61.78
54936;BME280;40838;50.676;7.838;2024-03-25T12:59:23;97192.63;;;13.64;62.46